EDT,Max TemperatureF,Mean TemperatureF,Min TemperatureF,Max Dew PointF,MeanDew PointF,Min DewpointF,Max Humidity, Mean Humidity, Min Humidity, Max Sea Level PressureIn, Mean Sea Level PressureIn, Min Sea Level PressureIn, Max VisibilityMiles, Mean VisibilityMiles, Min VisibilityMiles, Max Wind SpeedMPH, Mean Wind SpeedMPH, Max Gust SpeedMPH,PrecipitationIn, CloudCover, Events, WindDirDegrees
2013-5-1,70,56,42,41,35,30,76,50,23,30.46,30.42,30.35,10,10,10,13,5,20,0.00,0,Rain,100
2013-5-2,73,58,42,45,42,39,92,62,31,30.47,30.41,30.32,10,10,7,13,2,17,0.00,0,,86
2013-5-3,68,58,48,46,38,31,86,59,32,30.43,30.37,30.33,10,10,10,15,6,21,0.00,0,,126
2013-5-4,71,56,41,45,40,37,89,61,33,30.36,30.28,30.20,10,10,10,15,5,22,0.00,0,,124
2013-5-5,68,56,43,41,39,37,83,60,37,30.29,30.24,30.17,10,10,10,14,5,20,0.00,1,,93
2013-5-6,69,57,44,52,47,39,93,74,55,30.25,30.19,30.12,10,10,6,14,5,17,0.00,5,,90
2013-5-7,74,64,54,59,54,49,93,73,53,30.14,30.09,30.04,10,9,3,18,7,26,0.07,7,Rain,83
2013-5-8,73,66,59,61,59,51,97,82,67,30.04,29.98,29.90,10,6,1,12,3,18,1.51,7,Rain-Thunderstorm,97
2013-5-9,71,63,55,57,55,54,100,81,61,29.98,29.94,29.92,10,6,0,14,4,18,0.00,6,Fog,276
2013-5-10,82,67,52,63,56,52,100,70,39,30.01,29.97,29.89,10,6,1,29,3,36,0.48,2,Rain-Thunderstorm,199
2013-5-11,75,67,59,64,61,54,97,81,64,29.88,29.78,29.71,10,8,0,22,5,26,0.23,6,Fog-Rain,209
2013-5-12,62,54,46,53,37,26,78,54,30,30.00,29.83,29.73,10,10,10,24,12,35,0.00,1,,288
2013-5-13,56,48,39,35,29,23,79,54,29,30.17,30.07,30.00,10,10,10,21,8,29,0.00,3,,294
2013-5-14,61,48,34,37,30,24,85,55,25,30.20,30.13,30.05,10,10,10,16,5,21,T,1,Rain,266
2013-5-15,73,62,51,58,51,41,90,74,57,30.07,29.87,29.72,10,10,10,15,5,20,T,4,Rain,180
2013-5-16,84,70,56,64,57,47,97,65,33,29.90,29.80,29.74,10,6,1,17,5,21,0.05,2,Rain,259
2013-5-17,76,63,50,45,43,40,77,54,31,30.20,30.09,29.91,10,10,10,13,4,20,0.00,0,,340
2013-5-18,69,64,58,57,50,45,93,69,44,30.27,30.24,30.19,10,10,10,16,6,22,0.01,7,Rain,135
2013-5-19,65,62,58,61,58,55,93,89,84,30.26,30.21,30.15,10,7,2,10,4,14,0.01,8,Rain,106
2013-5-20,81,70,59,67,62,57,100,81,62,30.16,30.07,29.98,10,5,0,9,2,12,0.00,7,Fog,349
2013-5-21,87,75,63,71,67,62,93,74,55,29.99,29.93,29.86,10,8,2,14,4,20,0.00,3,,191
2013-5-22,92,80,67,73,68,62,97,68,38,29.92,29.87,29.81,10,9,2,21,6,26,0.02,1,Rain,205
2013-5-23,77,70,63,68,66,61,93,86,79,29.88,29.83,29.75,10,8,2,22,4,30,0.75,6,Rain-Thunderstorm,201
2013-5-24,64,56,47,61,49,36,93,74,54,30.09,29.88,29.71,10,10,5,25,12,35,0.03,7,Rain-Thunderstorm,324
2013-5-25,64,55,46,39,34,31,71,51,30,30.11,30.07,30.04,20,10,10,32,16,40,0.00,3,,314
2013-5-26,71,59,47,38,35,32,61,43,25,30.23,30.13,30.09,10,10,10,24,12,30,0.00,0,,303
2013-5-27,73,58,42,44,40,36,89,58,27,30.29,30.23,30.17,10,10,10,14,4,21,0.00,0,,262
2013-5-28,65,60,54,62,56,46,97,82,67,30.22,30.16,30.10,10,7,2,7,2,8,0.30,7,Rain,27
2013-5-29,89,75,60,69,62,59,100,72,43,30.12,30.08,30.03,10,4,0,17,5,25,0.00,3,,272
2013-5-30,92,78,64,67,64,62,93,66,38,30.17,30.13,30.09,10,10,7,12,3,16,0.00,0,,244
2013-5-31,94,81,67,67,64,58,93,64,34,30.14,30.08,30.01,10,10,10,15,5,18,0.00,0,,193